sensor_id;sensor_type;location;lat;lon;timestamp;pressure;altitude;pressure_sealevel;temperature;humidity
22605;BME280;11469;49.024;8.246;2023-01-29T00:00:06;101715.78;;;0.59;73.80
22605;BME280;11469;49.024;8.246;2023-01-29T00:02:35;101713.25;;;0.53;72.60
22605;BME280;11469;49.024;8.246;2023-01-29T00:05:01;101716.53;;;0.50;73.04
22605;BME280;11469;49.024;8.246;2023-01-29T00:07:26;101705.75;;;0.43;73.32
22605;BME280;11469;49.024;8.246;2023-01-29T00:09:52;101704.41;;;0.46;73.22
22605;BME280;11469;49.024;8.246;2023-01-29T00:12:17;101704.66;;;0.44;73.38
22605;BME280;11469;49.024;8.246;2023-01-29T00:14:42;101709.59;;;0.42;73.50
22605;BME280;11469;49.024;8.246;2023-01-29T00:17:08;101711.28;;;0.48;73.61
22605;BME280;11469;49.024;8.246;2023-01-29T00:19:34;101720.63;;;0.42;73.52
22605;BME280;11469;49.024;8.246;2023-01-29T00:21:59;101715.97;;;0.43;73.89
22605;BME280;11469;49.024;8.246;2023-01-29T00:24:25;101715.91;;;0.38;73.27
22605;BME280;11469;49.024;8.246;2023-01-29T00:26:50;101712.31;;;0.37;73.32
22605;BME280;11469;49.024;8.246;2023-01-29T00:29:16;101711.69;;;0.30;72.99
22605;BME280;11469;49.024;8.246;2023-01-29T00:31:43;101705.28;;;0.24;72.79
22605;BME280;11469;49.024;8.246;2023-01-29T00:34:09;101708.06;;;0.24;73.55
22605;BME280;11469;49.024;8.246;2023-01-29T00:36:34;101714.72;;;0.28;73.86
22605;BME280;11469;49.024;8.246;2023-01-29T00:39:00;101700.72;;;0.35;72.56
22605;BME280;11469;49.024;8.246;2023-01-29T00:41:34;101704.03;;;0.37;72.59
22605;BME280;11469;49.024;8.246;2023-01-29T00:44:18;101696.84;;;0.36;72.87
22605;BME280;11469;49.024;8.246;2023-01-29T00:47:03;101701.28;;;0.37;73.44
22605;BME280;11469;49.024;8.246;2023-01-29T00:49:49;101693.84;;;0.38;73.53
22605;BME280;11469;49.024;8.246;2023-01-29T00:52:14;101708.41;;;0.33;72.58
22605;BME280;11469;49.024;8.246;2023-01-29T00:54:49;101694.88;;;0.31;73.15
22605;BME280;11469;49.024;8.246;2023-01-29T00:57:15;101706.69;;;0.27;73.09
22605;BME280;11469;49.024;8.246;2023-01-29T00:59:40;101699.53;;;0.26;72.81
22605;BME280;11469;49.024;8.246;2023-01-29T01:02:05;101703.91;;;0.22;73.44
22605;BME280;11469;49.024;8.246;2023-01-29T01:04:49;101709.97;;;0.24;73.23
22605;BME280;11469;49.024;8.246;2023-01-29T01:07:15;101719.09;;;0.24;73.80
22605;BME280;11469;49.024;8.246;2023-01-29T01:09:40;101719.09;;;0.24;73.56
22605;BME280;11469;49.024;8.246;2023-01-29T01:12:24;101710.50;;;0.21;73.33
22605;BME280;11469;49.024;8.246;2023-01-29T01:14:50;101714.88;;;0.17;73.03
22605;BME280;11469;49.024;8.246;2023-01-29T01:17:15;101712.31;;;0.10;73.73
22605;BME280;11469;49.024;8.246;2023-01-29T01:19:41;101716.16;;;0.09;73.76
22605;BME280;11469;49.024;8.246;2023-01-29T01:22:06;101714.03;;;0.16;74.26
22605;BME280;11469;49.024;8.246;2023-01-29T01:24:32;101710.81;;;0.24;73.85
22605;BME280;11469;49.024;8.246;2023-01-29T01:26:57;101725.91;;;0.17;73.81
22605;BME280;11469;49.024;8.246;2023-01-29T01:29:22;101725.06;;;0.16;74.12
22605;BME280;11469;49.024;8.246;2023-01-29T01:31:48;101726.72;;;0.17;73.78
22605;BME280;11469;49.024;8.246;2023-01-29T01:34:14;101719.81;;;0.15;73.98
22605;BME280;11469;49.024;8.246;2023-01-29T01:36:39;101724.66;;;0.03;73.83
22605;BME280;11469;49.024;8.246;2023-01-29T01:39:05;101720.28;;;0.07;74.42
22605;BME280;11469;49.024;8.246;2023-01-29T01:41:30;101734.06;;;0.07;74.55
22605;BME280;11469;49.024;8.246;2023-01-29T01:44:01;101719.13;;;0.03;74.25
22605;BME280;11469;49.024;8.246;2023-01-29T01:46:28;101718.94;;;0.09;74.45
22605;BME280;11469;49.024;8.246;2023-01-29T01:49:04;101720.53;;;0.05;74.12
22605;BME280;11469;49.024;8.246;2023-01-29T01:51:35;101721.06;;;0.02;74.22
22605;BME280;11469;49.024;8.246;2023-01-29T01:54:25;101716.38;;;0.03;74.32
22605;BME280;11469;49.024;8.246;2023-01-29T01:56:56;101712.59;;;0.09;74.77
22605;BME280;11469;49.024;8.246;2023-01-29T01:59:36;101711.44;;;0.05;74.44
22605;BME280;11469;49.024;8.246;2023-01-29T02:02:02;101713.16;;;0.11;74.61
22605;BME280;11469;49.024;8.246;2023-01-29T02:04:47;101707.63;;;0.11;74.58
22605;BME280;11469;49.024;8.246;2023-01-29T02:07:32;101707.06;;;0.09;74.54
22605;BME280;11469;49.024;8.246;2023-01-29T02:10:17;101713.34;;;0.04;75.26
22605;BME280;11469;49.024;8.246;2023-01-29T02:12:44;101711.94;;;-0.04;75.10
22605;BME280;11469;49.024;8.246;2023-01-29T02:15:11;101713.84;;;-0.04;74.26
22605;BME280;11469;49.024;8.246;2023-01-29T02:17:36;101717.97;;;-0.07;75.12
22605;BME280;11469;49.024;8.246;2023-01-29T02:23:24;101720.44;;;-0.05;75.30
22605;BME280;11469;49.024;8.246;2023-01-29T02:39:35;101716.88;;;-0.06;75.58
22605;BME280;11469;49.024;8.246;2023-01-29T02:44:37;101711.56;;;-0.12;75.53
22605;BME280;11469;49.024;8.246;2023-01-29T02:49:43;101706.66;;;-0.05;75.39
22605;BME280;11469;49.024;8.246;2023-01-29T02:52:18;101700.59;;;-0.07;75.15
22605;BME280;11469;49.024;8.246;2023-01-29T02:54:59;101702.44;;;-0.13;75.44
22605;BME280;11469;49.024;8.246;2023-01-29T02:57:36;101696.69;;;-0.11;75.65
22605;BME280;11469;49.024;8.246;2023-01-29T03:00:22;101696.38;;;-0.15;75.29
22605;BME280;11469;49.024;8.246;2023-01-29T03:03:05;101697.72;;;-0.17;75.19
22605;BME280;11469;49.024;8.246;2023-01-29T03:08:24;101693.28;;;-0.18;75.66
22605;BME280;11469;49.024;8.246;2023-01-29T03:11:03;101679.56;;;-0.13;76.35
22605;BME280;11469;49.024;8.246;2023-01-29T03:19:02;101705.97;;;-0.17;76.68
22605;BME280;11469;49.024;8.246;2023-01-29T03:21:37;101695.72;;;-0.22;76.63
22605;BME280;11469;49.024;8.246;2023-01-29T03:24:50;101689.03;;;-0.04;75.47
22605;BME280;11469;49.024;8.246;2023-01-29T03:27:45;101689.63;;;-0.02;75.53
22605;BME280;11469;49.024;8.246;2023-01-29T03:30:32;101694.50;;;-0.09;76.17
22605;BME280;11469;49.024;8.246;2023-01-29T03:33:20;101692.56;;;-0.09;75.46
22605;BME280;11469;49.024;8.246;2023-01-29T03:36:10;101691.56;;;-0.24;76.34
22605;BME280;11469;49.024;8.246;2023-01-29T03:38:37;101698.50;;;-0.22;77.57
22605;BME280;11469;49.024;8.246;2023-01-29T03:41:08;101693.38;;;-0.35;78.17
22605;BME280;11469;49.024;8.246;2023-01-29T03:43:54;101686.44;;;-0.38;78.97
22605;BME280;11469;49.024;8.246;2023-01-29T03:46:54;101692.25;;;-0.12;78.48
22605;BME280;11469;49.024;8.246;2023-01-29T03:55:09;101696.56;;;-0.43;78.32
22605;BME280;11469;49.024;8.246;2023-01-29T03:58:03;101701.50;;;-0.45;78.54
22605;BME280;11469;49.024;8.246;2023-01-29T04:00:27;101700.94;;;-0.25;78.08
22605;BME280;11469;49.024;8.246;2023-01-29T04:05:52;101696.00;;;-0.45;78.50
22605;BME280;11469;49.024;8.246;2023-01-29T04:08:28;101692.13;;;-0.49;79.95
22605;BME280;11469;49.024;8.246;2023-01-29T04:10:58;101707.25;;;-0.52;80.45
22605;BME280;11469;49.024;8.246;2023-01-29T04:13:24;101705.00;;;-0.55;80.81
22605;BME280;11469;49.024;8.246;2023-01-29T04:15:57;101709.16;;;-0.52;80.58
22605;BME280;11469;49.024;8.246;2023-01-29T04:18:23;101702.19;;;-0.60;80.35
22605;BME280;11469;49.024;8.246;2023-01-29T04:20:49;101701.09;;;-0.59;80.39
22605;BME280;11469;49.024;8.246;2023-01-29T04:23:26;101704.41;;;-0.57;80.47
22605;BME280;11469;49.024;8.246;2023-01-29T04:26:09;101703.84;;;-0.59;80.54
22605;BME280;11469;49.024;8.246;2023-01-29T04:31:11;101707.34;;;-0.63;81.16
22605;BME280;11469;49.024;8.246;2023-01-29T04:33:52;101709.41;;;-0.76;81.75
22605;BME280;11469;49.024;8.246;2023-01-29T04:42:43;101710.16;;;-0.80;82.65
22605;BME280;11469;49.024;8.246;2023-01-29T04:45:19;101708.81;;;-0.78;82.48
22605;BME280;11469;49.024;8.246;2023-01-29T04:50:27;101700.56;;;-0.56;81.41
22605;BME280;11469;49.024;8.246;2023-01-29T04:53:02;101696.41;;;-0.58;81.52
22605;BME280;11469;49.024;8.246;2023-01-29T04:58:15;101707.94;;;-0.61;81.08
22605;BME280;11469;49.024;8.246;2023-01-29T05:00:48;101704.47;;;-0.74;81.53
22605;BME280;11469;49.024;8.246;2023-01-29T05:03:15;101708.06;;;-0.73;81.53
22605;BME280;11469;49.024;8.246;2023-01-29T05:05:44;101713.69;;;-0.63;81.15
22605;BME280;11469;49.024;8.246;2023-01-29T05:08:13;101711.97;;;-0.69;80.40
22605;BME280;11469;49.024;8.246;2023-01-29T05:10:40;101711.97;;;-0.69;80.01
22605;BME280;11469;49.024;8.246;2023-01-29T05:13:11;101706.47;;;-0.69;80.30
22605;BME280;11469;49.024;8.246;2023-01-29T05:15:40;101694.09;;;-0.67;79.82
22605;BME280;11469;49.024;8.246;2023-01-29T05:18:08;101701.28;;;-0.65;80.15
22605;BME280;11469;49.024;8.246;2023-01-29T05:20:39;101689.75;;;-0.62;80.00
22605;BME280;11469;49.024;8.246;2023-01-29T05:23:09;101674.25;;;-0.69;79.45
22605;BME280;11469;49.024;8.246;2023-01-29T05:25:39;101679.09;;;-0.76;79.85
22605;BME280;11469;49.024;8.246;2023-01-29T05:28:04;101670.66;;;-0.69;79.99
22605;BME280;11469;49.024;8.246;2023-01-29T05:30:41;101684.50;;;-0.64;79.41
22605;BME280;11469;49.024;8.246;2023-01-29T05:33:16;101681.69;;;-0.69;79.12
22605;BME280;11469;49.024;8.246;2023-01-29T05:35:42;101681.41;;;-0.68;79.99
22605;BME280;11469;49.024;8.246;2023-01-29T05:38:08;101676.16;;;-0.69;80.47
22605;BME280;11469;49.024;8.246;2023-01-29T05:40:33;101678.53;;;-0.78;80.96
22605;BME280;11469;49.024;8.246;2023-01-29T05:42:59;101680.63;;;-0.85;81.48
22605;BME280;11469;49.024;8.246;2023-01-29T05:45:24;101675.38;;;-0.86;81.96
22605;BME280;11469;49.024;8.246;2023-01-29T05:47:54;101674.31;;;-0.85;82.22
22605;BME280;11469;49.024;8.246;2023-01-29T05:50:20;101675.38;;;-0.86;82.98
22605;BME280;11469;49.024;8.246;2023-01-29T05:52:45;101698.00;;;-0.84;83.34
22605;BME280;11469;49.024;8.246;2023-01-29T05:55:10;101697.41;;;-0.86;83.35
22605;BME280;11469;49.024;8.246;2023-01-29T05:57:36;101698.81;;;-0.84;83.59
22605;BME280;11469;49.024;8.246;2023-01-29T06:00:02;101693.88;;;-0.82;83.82
22605;BME280;11469;49.024;8.246;2023-01-29T06:02:29;101704.91;;;-0.82;84.17
22605;BME280;11469;49.024;8.246;2023-01-29T06:04:55;101711.00;;;-0.80;84.22
22605;BME280;11469;49.024;8.246;2023-01-29T06:07:21;101699.41;;;-0.82;84.16
22605;BME280;11469;49.024;8.246;2023-01-29T06:09:46;101703.56;;;-0.79;83.91
22605;BME280;11469;49.024;8.246;2023-01-29T06:12:11;101704.91;;;-0.82;84.18
22605;BME280;11469;49.024;8.246;2023-01-29T06:14:37;101706.56;;;-0.81;84.00
22605;BME280;11469;49.024;8.246;2023-01-29T06:17:02;101706.13;;;-0.73;83.47
22605;BME280;11469;49.024;8.246;2023-01-29T06:19:29;101712.41;;;-0.77;83.76
22605;BME280;11469;49.024;8.246;2023-01-29T06:21:54;101719.91;;;-0.73;82.75
22605;BME280;11469;49.024;8.246;2023-01-29T06:24:20;101706.59;;;-0.59;81.86
22605;BME280;11469;49.024;8.246;2023-01-29T06:26:45;101712.50;;;-0.50;81.03
22605;BME280;11469;49.024;8.246;2023-01-29T06:29:10;101711.41;;;-0.49;80.85
22605;BME280;11469;49.024;8.246;2023-01-29T06:31:36;101699.16;;;-0.58;81.33
22605;BME280;11469;49.024;8.246;2023-01-29T06:34:01;101702.09;;;-0.65;81.24
22605;BME280;11469;49.024;8.246;2023-01-29T06:36:27;101694.03;;;-0.72;81.61
22605;BME280;11469;49.024;8.246;2023-01-29T06:38:53;101694.53;;;-0.75;82.43
22605;BME280;11469;49.024;8.246;2023-01-29T06:41:19;101693.97;;;-0.77;82.59
22605;BME280;11469;49.024;8.246;2023-01-29T06:43:49;101693.38;;;-0.79;82.77
22605;BME280;11469;49.024;8.246;2023-01-29T06:46:15;101687.03;;;-0.79;83.31
22605;BME280;11469;49.024;8.246;2023-01-29T06:48:40;101694.22;;;-0.78;83.59
22605;BME280;11469;49.024;8.246;2023-01-29T06:51:07;101701.13;;;-0.76;83.56
22605;BME280;11469;49.024;8.246;2023-01-29T06:53:33;101702.81;;;-0.75;83.88
22605;BME280;11469;49.024;8.246;2023-01-29T06:55:59;101703.13;;;-0.71;83.63
22605;BME280;11469;49.024;8.246;2023-01-29T06:58:24;101697.63;;;-0.71;83.87
22605;BME280;11469;49.024;8.246;2023-01-29T07:00:50;101697.03;;;-0.73;83.58
22605;BME280;11469;49.024;8.246;2023-01-29T07:03:16;101706.47;;;-0.69;83.32
22605;BME280;11469;49.024;8.246;2023-01-29T07:05:41;101700.63;;;-0.73;83.38
22605;BME280;11469;49.024;8.246;2023-01-29T07:08:07;101705.88;;;-0.71;83.67
22605;BME280;11469;49.024;8.246;2023-01-29T07:10:34;101706.47;;;-0.69;82.99
22605;BME280;11469;49.024;8.246;2023-01-29T07:13:00;101703.44;;;-0.68;83.09
22605;BME280;11469;49.024;8.246;2023-01-29T07:15:26;101713.06;;;-0.70;83.05
22605;BME280;11469;49.024;8.246;2023-01-29T07:20:22;101709.16;;;-0.74;82.87
22605;BME280;11469;49.024;8.246;2023-01-29T07:22:47;101703.13;;;-0.71;83.13
22605;BME280;11469;49.024;8.246;2023-01-29T07:25:12;101707.81;;;-0.72;82.89
22605;BME280;11469;49.024;8.246;2023-01-29T07:27:38;101706.47;;;-0.69;83.03
22605;BME280;11469;49.024;8.246;2023-01-29T07:30:04;101713.38;;;-0.67;83.15
22605;BME280;11469;49.024;8.246;2023-01-29T07:32:30;101719.47;;;-0.64;82.99
22605;BME280;11469;49.024;8.246;2023-01-29T07:34:55;101714.53;;;-0.62;83.26
22605;BME280;11469;49.024;8.246;2023-01-29T07:37:20;101719.22;;;-0.63;82.92
22605;BME280;11469;49.024;8.246;2023-01-29T07:39:46;101716.97;;;-0.66;82.11
22605;BME280;11469;49.024;8.246;2023-01-29T07:42:11;101722.44;;;-0.49;80.86
22605;BME280;11469;49.024;8.246;2023-01-29T07:44:37;101729.78;;;-0.55;80.96
22605;BME280;11469;49.024;8.246;2023-01-29T07:47:02;101742.16;;;-0.57;81.40
22605;BME280;11469;49.024;8.246;2023-01-29T07:49:28;101740.91;;;-0.67;81.34
22605;BME280;11469;49.024;8.246;2023-01-29T07:51:53;101736.00;;;-0.64;81.57
22605;BME280;11469;49.024;8.246;2023-01-29T07:54:18;101746.25;;;-0.60;81.73
22605;BME280;11469;49.024;8.246;2023-01-29T07:56:44;101742.72;;;-0.55;81.38
22605;BME280;11469;49.024;8.246;2023-01-29T07:59:09;101747.75;;;-0.47;81.06
22605;BME280;11469;49.024;8.246;2023-01-29T08:01:34;101746.97;;;-0.48;81.43
22605;BME280;11469;49.024;8.246;2023-01-29T08:04:00;101743.38;;;-0.48;81.35
22605;BME280;11469;49.024;8.246;2023-01-29T08:06:25;101750.25;;;-0.46;81.63
22605;BME280;11469;49.024;8.246;2023-01-29T08:08:51;101760.78;;;-0.43;81.78
22605;BME280;11469;49.024;8.246;2023-01-29T08:11:17;101755.22;;;-0.48;81.83
22605;BME280;11469;49.024;8.246;2023-01-29T08:13:43;101756.56;;;-0.50;82.22
22605;BME280;11469;49.024;8.246;2023-01-29T08:16:08;101751.56;;;-0.53;82.25
22605;BME280;11469;49.024;8.246;2023-01-29T08:18:36;101758.34;;;-0.61;82.58
22605;BME280;11469;49.024;8.246;2023-01-29T08:21:01;101755.84;;;-0.62;82.80
22605;BME280;11469;49.024;8.246;2023-01-29T08:23:27;101755.41;;;-0.54;82.49
22605;BME280;11469;49.024;8.246;2023-01-29T08:25:52;101755.91;;;-0.57;82.37
22605;BME280;11469;49.024;8.246;2023-01-29T08:28:18;101763.34;;;-0.58;83.08
22605;BME280;11469;49.024;8.246;2023-01-29T08:30:43;101774.75;;;-0.49;82.84
22605;BME280;11469;49.024;8.246;2023-01-29T08:33:09;101764.00;;;-0.51;82.44
22605;BME280;11469;49.024;8.246;2023-01-29T08:35:35;101773.00;;;-0.34;81.34
22605;BME280;11469;49.024;8.246;2023-01-29T08:38:01;101762.50;;;-0.37;81.36
22605;BME280;11469;49.024;8.246;2023-01-29T08:40:30;101766.66;;;-0.34;80.85
22605;BME280;11469;49.024;8.246;2023-01-29T08:43:00;101767.50;;;-0.34;81.21
22605;BME280;11469;49.024;8.246;2023-01-29T08:45:26;101776.66;;;-0.28;80.77
22605;BME280;11469;49.024;8.246;2023-01-29T08:47:51;101774.56;;;-0.21;81.21
22605;BME280;11469;49.024;8.246;2023-01-29T08:50:17;101773.47;;;-0.20;81.14
22605;BME280;11469;49.024;8.246;2023-01-29T08:52:43;101770.19;;;-0.17;80.62
22605;BME280;11469;49.024;8.246;2023-01-29T08:55:09;101760.00;;;-0.16;80.13
22605;BME280;11469;49.024;8.246;2023-01-29T08:57:36;101753.22;;;-0.09;79.83
22605;BME280;11469;49.024;8.246;2023-01-29T09:00:04;101746.28;;;-0.11;79.85
22605;BME280;11469;49.024;8.246;2023-01-29T09:02:29;101745.78;;;-0.08;79.74
22605;BME280;11469;49.024;8.246;2023-01-29T09:04:55;101747.13;;;-0.11;80.03
22605;BME280;11469;49.024;8.246;2023-01-29T09:07:20;101757.44;;;-0.01;79.81
22605;BME280;11469;49.024;8.246;2023-01-29T09:09:46;101761.84;;;0.00;79.36
22605;BME280;11469;49.024;8.246;2023-01-29T09:12:11;101765.78;;;0.09;78.62
22605;BME280;11469;49.024;8.246;2023-01-29T09:14:37;101777.91;;;0.08;79.15
22605;BME280;11469;49.024;8.246;2023-01-29T09:17:02;101787.91;;;0.14;79.33
22605;BME280;11469;49.024;8.246;2023-01-29T09:19:27;101800.59;;;0.37;78.00
22605;BME280;11469;49.024;8.246;2023-01-29T09:21:53;101804.34;;;0.58;77.16
22605;BME280;11469;49.024;8.246;2023-01-29T09:24:18;101785.66;;;0.65;76.68
22605;BME280;11469;49.024;8.246;2023-01-29T09:26:43;101777.28;;;0.55;74.80
22605;BME280;11469;49.024;8.246;2023-01-29T09:29:09;101764.06;;;0.57;73.99
22605;BME280;11469;49.024;8.246;2023-01-29T09:31:35;101750.25;;;0.57;73.93
22605;BME280;11469;49.024;8.246;2023-01-29T09:34:00;101741.16;;;0.56;73.44
22605;BME280;11469;49.024;8.246;2023-01-29T09:36:25;101733.75;;;0.62;73.55
22605;BME280;11469;49.024;8.246;2023-01-29T09:38:51;101722.75;;;0.67;72.26
22605;BME280;11469;49.024;8.246;2023-01-29T09:43:47;101707.66;;;0.75;73.20
22605;BME280;11469;49.024;8.246;2023-01-29T09:46:21;101710.44;;;0.80;70.69
22605;BME280;11469;49.024;8.246;2023-01-29T09:49:06;101708.22;;;0.77;70.08
22605;BME280;11469;49.024;8.246;2023-01-29T09:51:38;101714.84;;;0.76;70.87
22605;BME280;11469;49.024;8.246;2023-01-29T09:55:18;101707.16;;;0.83;70.80
22605;BME280;11469;49.024;8.246;2023-01-29T09:57:16;101715.69;;;0.81;70.42
22605;BME280;11469;49.024;8.246;2023-01-29T09:59:44;101714.13;;;0.90;70.65
22605;BME280;11469;49.024;8.246;2023-01-29T10:02:16;101712.50;;;0.99;70.78
22605;BME280;11469;49.024;8.246;2023-01-29T10:12:56;101717.13;;;1.31;69.22
22605;BME280;11469;49.024;8.246;2023-01-29T10:18:23;101725.72;;;1.40;68.08
22605;BME280;11469;49.024;8.246;2023-01-29T10:23:32;101710.53;;;1.47;68.39
22605;BME280;11469;49.024;8.246;2023-01-29T10:25:58;101721.63;;;1.52;67.77
22605;BME280;11469;49.024;8.246;2023-01-29T10:31:12;101728.84;;;1.63;67.33
22605;BME280;11469;49.024;8.246;2023-01-29T10:33:50;101730.22;;;1.61;67.61
22605;BME280;11469;49.024;8.246;2023-01-29T10:39:02;101737.97;;;1.64;66.98
22605;BME280;11469;49.024;8.246;2023-01-29T10:44:39;101746.31;;;1.69;68.13
22605;BME280;11469;49.024;8.246;2023-01-29T10:55:55;101716.22;;;1.93;67.29
22605;BME280;11469;49.024;8.246;2023-01-29T11:00:58;101720.41;;;2.06;68.21
22605;BME280;11469;49.024;8.246;2023-01-29T11:03:26;101708.56;;;2.15;68.42
22605;BME280;11469;49.024;8.246;2023-01-29T11:11:17;101694.44;;;2.17;66.90
22605;BME280;11469;49.024;8.246;2023-01-29T11:13:54;101672.59;;;2.25;67.00
22605;BME280;11469;49.024;8.246;2023-01-29T11:16:21;101686.13;;;2.02;66.06
22605;BME280;11469;49.024;8.246;2023-01-29T11:18:58;101680.34;;;2.13;66.42
22605;BME280;11469;49.024;8.246;2023-01-29T11:21:25;101670.66;;;2.21;66.19
22605;BME280;11469;49.024;8.246;2023-01-29T11:24:14;101673.72;;;2.24;66.30
22605;BME280;11469;49.024;8.246;2023-01-29T11:26:42;101672.34;;;2.32;66.43
22605;BME280;11469;49.024;8.246;2023-01-29T11:29:37;101661.81;;;2.24;65.79
22605;BME280;11469;49.024;8.246;2023-01-29T11:32:12;101657.38;;;2.08;66.69
22605;BME280;11469;49.024;8.246;2023-01-29T11:37:22;101652.13;;;2.11;67.97
22605;BME280;11469;49.024;8.246;2023-01-29T11:39:55;101654.88;;;2.16;67.78
22605;BME280;11469;49.024;8.246;2023-01-29T11:42:22;101650.72;;;2.14;67.22
22605;BME280;11469;49.024;8.246;2023-01-29T11:44:48;101648.81;;;2.14;66.97
22605;BME280;11469;49.024;8.246;2023-01-29T11:47:17;101629.97;;;2.06;67.19
22605;BME280;11469;49.024;8.246;2023-01-29T11:52:11;101628.34;;;2.15;68.35
22605;BME280;11469;49.024;8.246;2023-01-29T11:54:47;101620.31;;;2.29;68.13
22605;BME280;11469;49.024;8.246;2023-01-29T11:57:25;101623.06;;;2.39;65.74
22605;BME280;11469;49.024;8.246;2023-01-29T11:59:53;101616.16;;;2.26;66.55
22605;BME280;11469;49.024;8.246;2023-01-29T12:02:43;101606.47;;;2.34;67.27
22605;BME280;11469;49.024;8.246;2023-01-29T12:05:21;101606.44;;;2.39;67.68
22605;BME280;11469;49.024;8.246;2023-01-29T12:07:50;101607.00;;;2.41;67.41
22605;BME280;11469;49.024;8.246;2023-01-29T12:10:31;101596.75;;;2.67;68.30
22605;BME280;11469;49.024;8.246;2023-01-29T12:15:35;101589.81;;;2.64;66.30
22605;BME280;11469;49.024;8.246;2023-01-29T12:20:45;101570.47;;;2.54;67.09
22605;BME280;11469;49.024;8.246;2023-01-29T12:28:28;101552.75;;;2.60;65.84
22605;BME280;11469;49.024;8.246;2023-01-29T12:36:44;101540.69;;;2.95;66.44
22605;BME280;11469;49.024;8.246;2023-01-29T12:39:18;101544.56;;;2.94;65.49
22605;BME280;11469;49.024;8.246;2023-01-29T12:42:17;101531.25;;;3.02;65.80
22605;BME280;11469;49.024;8.246;2023-01-29T12:44:54;101524.31;;;3.04;64.95
22605;BME280;11469;49.024;8.246;2023-01-29T12:47:35;101522.41;;;2.99;65.74
22605;BME280;11469;49.024;8.246;2023-01-29T12:50:08;101523.00;;;2.91;64.83
22605;BME280;11469;49.024;8.246;2023-01-29T12:52:45;101511.38;;;2.84;64.95
22605;BME280;11469;49.024;8.246;2023-01-29T12:55:17;101500.84;;;2.86;65.41
22605;BME280;11469;49.024;8.246;2023-01-29T12:58:00;101492.25;;;2.93;65.40
22605;BME280;11469;49.024;8.246;2023-01-29T13:00:38;101493.91;;;2.94;65.70
22605;BME280;11469;49.024;8.246;2023-01-29T13:03:18;101480.59;;;2.96;64.89
22605;BME280;11469;49.024;8.246;2023-01-29T13:05:49;101484.47;;;2.95;65.57
22605;BME280;11469;49.024;8.246;2023-01-29T13:08:20;101485.03;;;2.97;65.72
22605;BME280;11469;49.024;8.246;2023-01-29T13:10:51;101490.28;;;2.98;65.20
22605;BME280;11469;49.024;8.246;2023-01-29T13:15:49;101504.13;;;2.98;64.79
22605;BME280;11469;49.024;8.246;2023-01-29T13:18:32;101493.31;;;3.02;65.18
22605;BME280;11469;49.024;8.246;2023-01-29T13:21:02;101491.09;;;3.04;65.86
22605;BME280;11469;49.024;8.246;2023-01-29T13:23:35;101494.66;;;3.10;64.69
22605;BME280;11469;49.024;8.246;2023-01-29T13:26:01;101487.22;;;3.00;64.46
22605;BME280;11469;49.024;8.246;2023-01-29T13:28:28;101489.44;;;2.98;65.28
22605;BME280;11469;49.024;8.246;2023-01-29T13:31:12;101485.22;;;3.11;65.57
22605;BME280;11469;49.024;8.246;2023-01-29T13:33:40;101498.22;;;3.15;65.38
22605;BME280;11469;49.024;8.246;2023-01-29T13:36:14;101484.63;;;3.19;64.92
22605;BME280;11469;49.024;8.246;2023-01-29T13:38:42;101489.31;;;3.23;65.37
22605;BME280;11469;49.024;8.246;2023-01-29T13:41:12;101487.34;;;3.29;65.01
22605;BME280;11469;49.024;8.246;2023-01-29T13:43:41;101490.63;;;3.31;64.64
22605;BME280;11469;49.024;8.246;2023-01-29T13:46:15;101485.09;;;3.31;64.67
22605;BME280;11469;49.024;8.246;2023-01-29T13:48:45;101479.03;;;3.29;65.01
22605;BME280;11469;49.024;8.246;2023-01-29T13:51:14;101475.63;;;3.37;64.56
22605;BME280;11469;49.024;8.246;2023-01-29T13:54:02;101483.16;;;3.31;65.28
22605;BME280;11469;49.024;8.246;2023-01-29T13:58:58;101476.31;;;3.19;65.24
22605;BME280;11469;49.024;8.246;2023-01-29T14:04:22;101479.66;;;3.16;65.56
22605;BME280;11469;49.024;8.246;2023-01-29T14:06:54;101475.25;;;3.10;65.72
22605;BME280;11469;49.024;8.246;2023-01-29T14:17:24;101469.97;;;3.18;65.94
22605;BME280;11469;49.024;8.246;2023-01-29T14:19:52;101466.31;;;3.23;65.82
22605;BME280;11469;49.024;8.246;2023-01-29T14:22:20;101469.34;;;3.26;65.68
22605;BME280;11469;49.024;8.246;2023-01-29T14:24:48;101454.56;;;3.36;65.29
22605;BME280;11469;49.024;8.246;2023-01-29T14:27:19;101447.38;;;3.35;65.00
22605;BME280;11469;49.024;8.246;2023-01-29T14:29:45;101446.81;;;3.38;65.29
22605;BME280;11469;49.024;8.246;2023-01-29T14:32:17;101452.91;;;3.35;64.91
22605;BME280;11469;49.024;8.246;2023-01-29T14:34:48;101449.03;;;3.36;64.94
22605;BME280;11469;49.024;8.246;2023-01-29T14:44:57;101433.59;;;3.30;65.87
22605;BME280;11469;49.024;8.246;2023-01-29T14:49:53;101439.75;;;3.17;66.80
22605;BME280;11469;49.024;8.246;2023-01-29T14:52:23;101445.63;;;3.10;67.60
22605;BME280;11469;49.024;8.246;2023-01-29T14:54:52;101443.19;;;2.98;67.64
22605;BME280;11469;49.024;8.246;2023-01-29T14:57:22;101447.06;;;2.97;68.67
22605;BME280;11469;49.024;8.246;2023-01-29T14:59:53;101453.19;;;2.94;69.13
22605;BME280;11469;49.024;8.246;2023-01-29T15:02:26;101454.28;;;2.93;68.59
22605;BME280;11469;49.024;8.246;2023-01-29T15:04:58;101452.41;;;2.84;68.62
22605;BME280;11469;49.024;8.246;2023-01-29T15:10:03;101450.53;;;2.74;69.20
22605;BME280;11469;49.024;8.246;2023-01-29T15:15:42;101453.31;;;2.74;69.43
22605;BME280;11469;49.024;8.246;2023-01-29T15:18:25;101451.66;;;2.68;69.76
22605;BME280;11469;49.024;8.246;2023-01-29T15:24:03;101454.72;;;2.66;70.32
22605;BME280;11469;49.024;8.246;2023-01-29T15:26:29;101460.00;;;2.63;70.16
22605;BME280;11469;49.024;8.246;2023-01-29T15:28:57;101450.59;;;2.59;69.93
22605;BME280;11469;49.024;8.246;2023-01-29T15:31:23;101448.41;;;2.56;70.43
22605;BME280;11469;49.024;8.246;2023-01-29T15:33:50;101448.94;;;2.58;70.12
22605;BME280;11469;49.024;8.246;2023-01-29T15:36:23;101460.31;;;2.51;70.20
22605;BME280;11469;49.024;8.246;2023-01-29T15:39:12;101451.19;;;2.51;70.35
22605;BME280;11469;49.024;8.246;2023-01-29T15:41:39;101446.22;;;2.48;70.39
22605;BME280;11469;49.024;8.246;2023-01-29T15:44:20;101447.31;;;2.47;70.58